Time;durP1;ratioP1;P1;durP2;ratioP2;P2;SDS_P1;SDS_P2;PMS_P1;PMS_P2;Temp;Humidity;BMP_temperature;BMP_pressure;BME280_temperature;BME280_humidity;BME280_pressure;Samples;Min_cycle;Max_cycle;Signal;HPM_P1;HPM_P2
2023/02/10 00:01:15;;;;;;;0.20;0.20;;;5.00;99.90;;;;;;5035104;28;20041;-73
2023/02/10 00:03:40;;;;;;;0.20;0.20;;;5.00;99.90;;;;;;5034507;28;20022;-73
2023/02/10 00:06:07;;;;;;;0.20;0.20;;;5.00;99.90;;;;;;5034585;28;20479;-73
2023/02/10 00:08:34;;;;;;;0.20;0.20;;;5.00;99.90;;;;;;5034802;28;20036;-73
2023/02/10 00:11:05;;;;;;;0.20;0.20;;;5.10;99.90;;;;;;5034685;28;20025;-73
2023/02/10 00:13:32;;;;;;;0.20;0.20;;;5.10;99.90;;;;;;5034608;28;20037;-73
2023/02/10 00:16:00;;;;;;;10.30;0.65;;;5.10;99.90;;;;;;5034644;28;20060;-73
2023/02/10 00:18:26;;;;;;;0.20;0.20;;;5.10;99.90;;;;;;5034095;28;20049;-74
2023/02/10 00:20:52;;;;;;;0.13;0.13;;;5.20;99.90;;;;;;5034542;28;20076;-73
2023/02/10 00:23:17;;;;;;;0.13;0.13;;;5.20;99.90;;;;;;5034387;28;20491;-73
2023/02/10 00:25:43;;;;;;;0.50;0.43;;;5.20;99.90;;;;;;5034428;28;20487;-73
2023/02/10 00:28:08;;;;;;;0.10;0.10;;;5.30;99.90;;;;;;5034216;28;20040;-73
2023/02/10 00:30:34;;;;;;;0.17;0.17;;;5.30;99.90;;;;;;5016139;28;20036;-73
2023/02/10 00:32:59;;;;;;;5.22;1.38;;;5.40;99.90;;;;;;5034256;28;20026;-73
2023/02/10 00:35:25;;;;;;;0.30;0.30;;;5.40;99.90;;;;;;5033845;28;20026;-74
2023/02/10 00:37:51;;;;;;;0.20;0.20;;;5.40;99.90;;;;;;5034471;28;20487;-73
2023/02/10 00:40:17;;;;;;;0.20;0.20;;;5.50;99.90;;;;;;5033769;28;20060;-74
2023/02/10 00:42:43;;;;;;;0.15;0.15;;;5.50;99.90;;;;;;5034017;28;20036;-73
2023/02/10 00:45:09;;;;;;;0.47;0.47;;;5.50;99.90;;;;;;5033941;28;20376;-73
2023/02/10 00:47:35;;;;;;;0.10;0.10;;;5.50;99.90;;;;;;5034107;28;20044;-73
2023/02/10 00:50:01;;;;;;;2.28;0.70;;;5.50;99.90;;;;;;5033940;28;20022;-74
2023/02/10 00:52:27;;;;;;;0.28;0.28;;;5.60;99.90;;;;;;5033667;28;20399;-73
2023/02/10 00:54:52;;;;;;;3.63;1.40;;;5.50;99.90;;;;;;5033809;28;20021;-74
2023/02/10 00:57:18;;;;;;;0.17;0.17;;;5.40;99.90;;;;;;5033701;28;20079;-73
2023/02/10 00:59:43;;;;;;;0.20;0.20;;;5.30;99.90;;;;;;5032484;28;20029;-74
2023/02/10 01:02:09;;;;;;;2.35;2.15;;;5.20;99.90;;;;;;5016242;28;20026;-73
2023/02/10 01:04:35;;;;;;;0.60;0.60;;;5.20;99.90;;;;;;5033500;28;20071;-74
2023/02/10 01:07:00;;;;;;;0.20;0.20;;;5.10;99.90;;;;;;5033628;28;20021;-73
2023/02/10 01:09:26;;;;;;;0.20;0.20;;;5.10;99.90;;;;;;5033616;28;20025;-73
2023/02/10 01:11:51;;;;;;;2.58;2.38;;;5.00;99.90;;;;;;5033854;28;20036;-73
2023/02/10 01:14:17;;;;;;;0.20;0.20;;;5.00;99.90;;;;;;5034149;28;20081;-73
2023/02/10 01:16:43;;;;;;;1.88;0.28;;;4.90;99.90;;;;;;5034001;28;20022;-73
2023/02/10 01:19:09;;;;;;;0.20;0.20;;;4.90;99.90;;;;;;5016063;28;20391;-73
2023/02/10 01:21:36;;;;;;;0.20;0.20;;;4.80;99.90;;;;;;5033110;28;20079;-73
2023/02/10 01:24:02;;;;;;;3.70;1.95;;;4.70;99.90;;;;;;5033530;28;20021;-73
2023/02/10 01:26:28;;;;;;;0.57;0.57;;;4.70;99.90;;;;;;5033557;28;20494;-73
2023/02/10 01:28:53;;;;;;;0.20;0.20;;;4.60;99.90;;;;;;5033386;28;20036;-73
2023/02/10 01:31:20;;;;;;;0.20;0.20;;;4.40;99.90;;;;;;5033279;28;20032;-74
2023/02/10 01:33:47;;;;;;;0.20;0.20;;;4.50;99.90;;;;;;5034219;28;20108;-73
2023/02/10 01:36:17;;;;;;;0.10;0.10;;;4.50;99.90;;;;;;5033359;28;20102;-73
2023/02/10 01:38:44;;;;;;;0.15;0.15;;;4.50;99.90;;;;;;5033140;28;20030;-73
2023/02/10 01:41:10;;;;;;;0.20;0.20;;;4.50;99.90;;;;;;5015189;28;20018;-73
2023/02/10 01:44:03;;;;;;;0.20;0.20;;;4.40;99.90;;;;;;5033386;28;20033;-73
2023/02/10 01:46:31;;;;;;;0.20;0.20;;;4.30;99.90;;;;;;5033142;28;20032;-73
2023/02/10 01:49:01;;;;;;;1.95;1.23;;;4.20;99.90;;;;;;5033163;28;20033;-73
2023/02/10 01:51:36;;;;;;;0.17;0.17;;;4.10;99.90;;;;;;5033520;28;20438;-73
2023/02/10 01:54:02;;;;;;;0.20;0.20;;;4.10;99.90;;;;;;5033093;28;20115;-73
2023/02/10 01:56:28;;;;;;;0.10;0.10;;;4.20;99.90;;;;;;5033252;28;20049;-73
2023/02/10 01:58:53;;;;;;;0.10;0.10;;;4.30;99.90;;;;;;5033232;28;20423;-74
2023/02/10 02:01:19;;;;;;;0.20;0.20;;;4.30;99.90;;;;;;5033168;28;20423;-73
2023/02/10 02:03:45;;;;;;;0.20;0.20;;;4.10;99.90;;;;;;5033127;28;20539;-74
2023/02/10 02:06:10;;;;;;;0.20;0.20;;;4.00;99.90;;;;;;5033146;28;20502;-74
2023/02/10 02:08:37;;;;;;;0.10;0.10;;;3.90;99.90;;;;;;5033331;28;20018;-73
2023/02/10 02:11:03;;;;;;;0.10;0.10;;;3.90;99.90;;;;;;5033738;28;20025;-73
2023/02/10 02:14:10;;;;;;;0.20;0.20;;;3.90;99.90;;;;;;5036660;28;20542;-73
2023/02/10 02:16:47;;;;;;;0.68;0.28;;;4.00;99.90;;;;;;5036944;28;20026;-73
2023/02/10 02:19:33;;;;;;;0.20;0.20;;;4.10;99.90;;;;;;5036698;28;20021;-73
2023/02/10 02:22:24;;;;;;;0.30;0.30;;;4.20;99.90;;;;;;5052220;28;20030;-73
2023/02/10 02:25:28;;;;;;;0.20;0.20;;;4.40;99.90;;;;;;5016961;28;20094;-74
2023/02/10 02:27:57;;;;;;;1.45;0.80;;;4.50;99.90;;;;;;5022383;28;20025;-73
2023/02/10 02:30:50;;;;;;;0.15;0.15;;;4.40;99.90;;;;;;5036409;28;20025;-73
2023/02/10 02:33:22;;;;;;;0.20;0.20;;;4.30;99.90;;;;;;5036397;28;20060;-73
2023/02/10 02:36:03;;;;;;;0.10;0.10;;;4.30;99.90;;;;;;5036617;28;20030;-73
2023/02/10 02:38:29;;;;;;;0.30;0.30;;;4.20;99.90;;;;;;5036542;28;20013;-73
2023/02/10 02:40:55;;;;;;;0.20;0.20;;;4.20;99.90;;;;;;5036433;28;20022;-73
2023/02/10 02:43:22;;;;;;;0.20;0.20;;;4.20;99.90;;;;;;5036186;28;20026;-73
2023/02/10 02:46:25;;;;;;;0.45;0.45;;;4.10;99.90;;;;;;5036377;28;20108;-73
2023/02/10 02:49:14;;;;;;;0.20;0.20;;;3.90;99.90;;;;;;5018390;28;20032;-73
2023/02/10 02:52:15;;;;;;;0.20;0.20;;;3.80;99.90;;;;;;5036060;28;20433;-73
2023/02/10 02:55:04;;;;;;;0.20;0.20;;;3.70;99.90;;;;;;5015434;28;20409;-73
2023/02/10 02:57:51;;;;;;;0.10;0.10;;;3.50;99.90;;;;;;5036453;28;20034;-73
2023/02/10 03:00:23;;;;;;;0.10;0.10;;;3.50;99.90;;;;;;5036440;28;20053;-74
2023/02/10 03:02:49;;;;;;;0.20;0.20;;;3.60;99.90;;;;;;5036370;28;20381;-74
2023/02/10 03:05:23;;;;;;;0.20;0.20;;;3.50;99.90;;;;;;5036224;28;20036;-74
2023/02/10 03:07:49;;;;;;;0.20;0.20;;;3.40;99.90;;;;;;5035677;28;20032;-74
2023/02/10 03:10:15;;;;;;;0.20;0.20;;;3.40;99.90;;;;;;5036004;28;20025;-74
2023/02/10 03:12:41;;;;;;;0.20;0.20;;;3.40;99.90;;;;;;5035677;28;20018;-74
2023/02/10 03:15:07;;;;;;;0.32;0.30;;;3.30;99.90;;;;;;5035740;28;20025;-74
2023/02/10 03:17:32;;;;;;;0.40;0.40;;;3.50;99.90;;;;;;5035645;28;20025;-74
2023/02/10 03:19:58;;;;;;;0.20;0.20;;;3.70;99.90;;;;;;5035819;28;20037;-74
2023/02/10 03:22:23;;;;;;;0.30;0.30;;;3.70;99.90;;;;;;5035392;28;20033;-74
2023/02/10 03:24:49;;;;;;;0.20;0.20;;;3.70;99.90;;;;;;5035557;28;20025;-74
2023/02/10 03:27:17;;;;;;;0.10;0.10;;;3.60;99.90;;;;;;5035813;28;20036;-74
2023/02/10 03:29:43;;;;;;;0.20;0.20;;;3.60;99.90;;;;;;5035204;28;20033;-74
2023/02/10 03:32:09;;;;;;;0.20;0.20;;;3.50;99.90;;;;;;5036513;28;20022;-74
2023/02/10 03:34:34;;;;;;;0.20;0.20;;;3.60;99.90;;;;;;5035517;28;20030;-74
2023/02/10 03:37:00;;;;;;;0.20;0.20;;;3.50;99.90;;;;;;5035573;28;20025;-74
2023/02/10 03:39:26;;;;;;;0.20;0.20;;;3.60;99.90;;;;;;5036509;28;20391;-74
2023/02/10 03:41:53;;;;;;;0.20;0.20;;;3.60;99.90;;;;;;5035905;28;20025;-74
2023/02/10 03:44:18;;;;;;;0.20;0.20;;;3.60;99.90;;;;;;5017832;28;20043;-74
2023/02/10 03:46:44;;;;;;;0.20;0.20;;;3.60;99.90;;;;;;5017342;28;20033;-74
2023/02/10 03:49:11;;;;;;;0.25;0.25;;;3.60;99.90;;;;;;5035557;28;20132;-74
2023/02/10 03:51:36;;;;;;;5.47;1.13;;;3.60;99.90;;;;;;5034822;28;20084;-74
2023/02/10 03:54:02;;;;;;;0.20;0.20;;;3.60;99.90;;;;;;5035202;28;20029;-74
2023/02/10 03:56:27;;;;;;;0.20;0.20;;;3.70;99.90;;;;;;5033819;28;20025;-74
2023/02/10 03:58:53;;;;;;;0.20;0.20;;;3.70;99.90;;;;;;5034912;28;20032;-74
2023/02/10 04:01:19;;;;;;;0.20;0.20;;;3.80;99.90;;;;;;5035085;28;20037;-74
2023/02/10 04:03:44;;;;;;;0.30;0.30;;;3.90;99.90;;;;;;5034619;28;20033;-74
2023/02/10 04:06:11;;;;;;;0.20;0.20;;;4.00;99.90;;;;;;5034865;28;20029;-74
2023/02/10 04:08:37;;;;;;;0.10;0.10;;;4.10;99.90;;;;;;5035416;28;20155;-74
2023/02/10 04:11:03;;;;;;;13.65;6.88;;;4.10;99.90;;;;;;5016836;28;20026;-74
2023/02/10 04:13:29;;;;;;;0.10;0.10;;;4.00;99.90;;;;;;5034670;28;20365;-74
2023/02/10 04:16:05;;;;;;;1.75;1.65;;;4.00;99.90;;;;;;5016718;28;20112;-74
2023/02/10 04:18:31;;;;;;;2.30;1.65;;;4.10;99.90;;;;;;5034717;28;20033;-74
2023/02/10 04:20:57;;;;;;;0.10;0.10;;;4.10;99.90;;;;;;5034540;28;20029;-74
2023/02/10 04:23:23;;;;;;;0.20;0.20;;;4.10;99.90;;;;;;5034590;28;20100;-74
2023/02/10 04:25:48;;;;;;;0.20;0.20;;;4.00;99.90;;;;;;5034512;28;20454;-74
2023/02/10 04:28:14;;;;;;;0.00;0.00;;;4.00;99.90;;;;;;5034277;28;20037;-74
2023/02/10 04:30:39;;;;;;;2.67;2.47;;;4.00;99.90;;;;;;5034642;28;20025;-74
2023/02/10 04:33:05;;;;;;;0.13;0.13;;;4.00;99.90;;;;;;5034152;28;20064;-75
2023/02/10 04:35:30;;;;;;;4.40;0.88;;;3.90;99.90;;;;;;5034803;28;20100;-74
2023/02/10 04:37:56;;;;;;;0.63;0.63;;;3.80;99.90;;;;;;5034560;28;20483;-75
2023/02/10 04:40:22;;;;;;;0.10;0.10;;;3.80;99.90;;;;;;5034084;28;20104;-75
2023/02/10 04:42:47;;;;;;;0.20;0.20;;;3.80;99.90;;;;;;5034759;28;20025;-75
2023/02/10 04:45:13;;;;;;;0.10;0.10;;;3.80;99.90;;;;;;5034501;28;20079;-75
2023/02/10 04:47:38;;;;;;;0.10;0.10;;;3.80;99.90;;;;;;5033961;28;20391;-75
2023/02/10 04:50:05;;;;;;;0.10;0.10;;;3.80;99.90;;;;;;5033581;28;20026;-75
2023/02/10 04:52:30;;;;;;;0.20;0.20;;;3.70;99.90;;;;;;5033913;28;20025;-75
2023/02/10 04:54:56;;;;;;;0.10;0.10;;;3.70;99.90;;;;;;5033569;28;20613;-73
2023/02/10 04:57:21;;;;;;;0.20;0.20;;;3.70;99.90;;;;;;5033886;28;20025;-74
2023/02/10 04:59:47;;;;;;;0.20;0.20;;;3.70;99.90;;;;;;5033476;28;20075;-73
2023/02/10 05:02:12;;;;;;;0.10;0.10;;;3.70;99.90;;;;;;5034005;28;20028;-73
2023/02/10 05:04:38;;;;;;;1.85;1.13;;;3.60;99.90;;;;;;5033205;28;20026;-73
2023/02/10 05:07:03;;;;;;;0.20;0.20;;;3.60;99.90;;;;;;5033576;28;20424;-73
2023/02/10 05:09:29;;;;;;;0.20;0.20;;;3.60;99.90;;;;;;5033240;28;20105;-73
2023/02/10 05:11:54;;;;;;;9.38;1.75;;;3.70;99.90;;;;;;5033458;28;20030;-73
2023/02/10 05:14:20;;;;;;;0.20;0.20;;;3.80;99.90;;;;;;5033439;28;20376;-73
2023/02/10 05:16:46;;;;;;;0.15;0.13;;;3.80;99.90;;;;;;5033292;28;20464;-73
2023/02/10 05:19:12;;;;;;;0.20;0.20;;;3.80;99.90;;;;;;5032075;28;20018;-73
2023/02/10 05:21:37;;;;;;;0.10;0.10;;;3.90;99.90;;;;;;5033188;28;20021;-73
2023/02/10 05:24:03;;;;;;;0.10;0.10;;;3.80;99.90;;;;;;5033341;28;20386;-73
2023/02/10 05:26:28;;;;;;;0.20;0.20;;;3.70;99.90;;;;;;5033337;28;20473;-72
2023/02/10 05:28:54;;;;;;;0.20;0.20;;;3.60;99.90;;;;;;5033063;28;20025;-72
2023/02/10 05:31:20;;;;;;;0.10;0.10;;;3.60;99.90;;;;;;5033049;28;20024;-73
2023/02/10 05:33:45;;;;;;;0.20;0.20;;;3.60;99.90;;;;;;5033396;28;20030;-73
2023/02/10 05:36:11;;;;;;;0.13;0.13;;;3.50;99.90;;;;;;5032896;28;20076;-73
2023/02/10 05:38:37;;;;;;;0.20;0.20;;;3.60;99.90;;;;;;5033172;28;20017;-73
2023/02/10 05:41:02;;;;;;;0.17;0.17;;;3.50;99.90;;;;;;5033136;28;20017;-73
2023/02/10 05:43:28;;;;;;;0.10;0.10;;;3.50;99.90;;;;;;5032822;28;20090;-73
2023/02/10 05:45:53;;;;;;;2.45;2.30;;;3.60;99.90;;;;;;5034314;28;20101;-73
2023/02/10 05:48:19;;;;;;;0.13;0.13;;;3.60;99.90;;;;;;5037083;28;20471;-73
2023/02/10 05:50:49;;;;;;;0.10;0.10;;;3.70;99.90;;;;;;5037469;28;20033;-73
2023/02/10 05:53:15;;;;;;;0.98;0.95;;;3.80;99.90;;;;;;5037106;28;20140;-73
2023/02/10 05:55:40;;;;;;;0.20;0.20;;;3.90;99.90;;;;;;5019481;28;20033;-74
2023/02/10 05:58:06;;;;;;;0.10;0.10;;;4.00;99.90;;;;;;5037019;28;20077;-73
2023/02/10 06:00:32;;;;;;;0.10;0.10;;;3.90;99.90;;;;;;5037264;28;20041;-74
2023/02/10 06:02:57;;;;;;;0.10;0.10;;;3.90;99.90;;;;;;5037461;28;20018;-72
2023/02/10 06:05:23;;;;;;;0.10;0.10;;;3.80;99.90;;;;;;5036886;28;20021;-74
2023/02/10 06:07:48;;;;;;;0.20;0.20;;;3.80;99.90;;;;;;5037400;28;20041;-73
2023/02/10 06:10:14;;;;;;;0.10;0.10;;;3.80;99.90;;;;;;5036740;28;20387;-72
2023/02/10 06:12:40;;;;;;;0.10;0.10;;;3.80;99.90;;;;;;5036689;28;20033;-73
2023/02/10 06:15:06;;;;;;;0.20;0.20;;;3.80;99.90;;;;;;5036547;28;20021;-72
2023/02/10 06:17:32;;;;;;;0.13;0.13;;;3.80;99.90;;;;;;5036701;28;20029;-73
2023/02/10 06:19:58;;;;;;;0.20;0.20;;;3.80;99.90;;;;;;5036750;28;20189;-73
2023/02/10 06:22:24;;;;;;;0.10;0.10;;;3.70;99.90;;;;;;5036601;28;20072;-72
2023/02/10 06:24:49;;;;;;;0.93;0.68;;;3.60;99.90;;;;;;5036791;28;20029;-73
2023/02/10 06:27:15;;;;;;;0.20;0.20;;;3.50;99.90;;;;;;5018836;28;20052;-73
2023/02/10 06:29:41;;;;;;;0.10;0.10;;;3.50;99.90;;;;;;5036322;28;20021;-72
2023/02/10 06:32:06;;;;;;;0.20;0.20;;;3.50;99.90;;;;;;5036525;28;20086;-73
2023/02/10 06:34:32;;;;;;;0.10;0.10;;;3.60;99.90;;;;;;5036342;28;20213;-72
2023/02/10 06:36:57;;;;;;;0.10;0.10;;;3.70;99.90;;;;;;5036198;28;20029;-72
2023/02/10 06:39:23;;;;;;;0.15;0.15;;;3.80;99.90;;;;;;5036506;28;20022;-73
2023/02/10 06:41:48;;;;;;;0.10;0.10;;;3.90;99.90;;;;;;5036443;28;20018;-73
2023/02/10 06:44:14;;;;;;;0.10;0.10;;;4.00;99.90;;;;;;5036065;28;20029;-73
2023/02/10 06:46:39;;;;;;;0.20;0.20;;;4.00;99.90;;;;;;5036029;28;20023;-73
2023/02/10 06:49:05;;;;;;;2.95;0.95;;;4.10;99.90;;;;;;5036077;28;20022;-72
2023/02/10 06:51:30;;;;;;;0.10;0.10;;;4.10;99.90;;;;;;5036027;28;20033;-73
2023/02/10 06:53:56;;;;;;;0.10;0.10;;;4.10;99.90;;;;;;5036195;28;20029;-72
2023/02/10 06:56:21;;;;;;;0.10;0.10;;;4.10;99.90;;;;;;5035950;28;20365;-72
2023/02/10 06:58:47;;;;;;;0.10;0.10;;;4.10;99.90;;;;;;5034624;28;20471;-73
2023/02/10 07:01:16;;;;;;;0.10;0.10;;;4.10;99.90;;;;;;5035728;28;20075;-72
2023/02/10 07:03:42;;;;;;;0.10;0.10;;;4.10;99.90;;;;;;5035961;28;20072;-73
2023/02/10 07:06:08;;;;;;;0.15;0.15;;;4.10;99.90;;;;;;5035823;28;20033;-72
2023/02/10 07:08:33;;;;;;;0.10;0.10;;;4.10;99.90;;;;;;5035608;28;20036;-72
2023/02/10 07:10:59;;;;;;;0.20;0.20;;;4.10;99.90;;;;;;5035810;28;20029;-73
2023/02/10 07:13:25;;;;;;;0.10;0.10;;;4.20;99.90;;;;;;5035377;28;20032;-73
2023/02/10 07:15:50;;;;;;;0.15;0.15;;;4.10;99.90;;;;;;5035770;28;20030;-73
2023/02/10 07:18:16;;;;;;;0.10;0.10;;;4.20;99.90;;;;;;5035139;28;20049;-72
2023/02/10 07:20:41;;;;;;;0.10;0.10;;;4.20;99.90;;;;;;5035692;28;20030;-73
2023/02/10 07:23:07;;;;;;;0.10;0.10;;;4.30;99.90;;;;;;5035605;28;20391;-73
2023/02/10 07:25:32;;;;;;;0.17;0.17;;;4.30;99.90;;;;;;5035330;28;20022;-73
2023/02/10 07:27:58;;;;;;;0.10;0.10;;;4.30;99.90;;;;;;5035359;28;20029;-72
2023/02/10 07:30:23;;;;;;;0.20;0.20;;;4.30;99.90;;;;;;5035294;28;20104;-73
2023/02/10 07:32:49;;;;;;;0.10;0.10;;;4.30;99.90;;;;;;5035192;28;20134;-73
2023/02/10 07:35:15;;;;;;;0.10;0.10;;;4.30;99.90;;;;;;5035255;28;20033;-73
2023/02/10 07:37:40;;;;;;;0.10;0.10;;;4.20;99.90;;;;;;5035204;28;20418;-73
2023/02/10 07:40:07;;;;;;;0.38;0.38;;;4.30;99.90;;;;;;5034946;28;20052;-73
2023/02/10 07:42:34;;;;;;;0.10;0.10;;;4.30;99.90;;;;;;5035289;28;20360;-73
2023/02/10 07:44:59;;;;;;;0.10;0.10;;;4.20;99.90;;;;;;5035059;28;20017;-73
2023/02/10 07:47:25;;;;;;;0.10;0.10;;;4.20;99.90;;;;;;5034996;28;20471;-72
2023/02/10 07:49:53;;;;;;;0.10;0.10;;;4.20;99.90;;;;;;5034768;28;20041;-72
2023/02/10 07:52:19;;;;;;;4.47;2.50;;;4.10;99.90;;;;;;5034895;28;20018;-74
2023/02/10 07:54:45;;;;;;;0.10;0.10;;;4.10;99.90;;;;;;5034881;28;20021;-74
2023/02/10 07:57:11;;;;;;;2.08;1.05;;;4.20;99.90;;;;;;5034787;28;20132;-73
2023/02/10 07:59:37;;;;;;;0.10;0.10;;;4.20;99.90;;;;;;5034563;28;20056;-74
2023/02/10 08:02:04;;;;;;;13.25;0.55;;;4.30;99.90;;;;;;5034885;28;20151;-73
2023/02/10 08:04:31;;;;;;;0.20;0.20;;;4.40;99.90;;;;;;5034516;28;20033;-73
2023/02/10 08:06:56;;;;;;;0.10;0.10;;;4.50;99.90;;;;;;5034722;28;20022;-73
2023/02/10 08:09:22;;;;;;;0.10;0.10;;;4.50;99.90;;;;;;5034619;28;20032;-73
2023/02/10 08:11:48;;;;;;;0.08;0.08;;;4.50;99.90;;;;;;5034251;28;20028;-72
2023/02/10 08:14:13;;;;;;;0.10;0.10;;;4.50;99.90;;;;;;5034301;28;20029;-73
2023/02/10 08:16:39;;;;;;;0.10;0.10;;;4.50;99.90;;;;;;5034153;28;20096;-72
2023/02/10 08:19:04;;;;;;;0.20;0.20;;;4.50;99.90;;;;;;5034292;28;20021;-72
2023/02/10 08:21:30;;;;;;;0.10;0.10;;;4.60;99.90;;;;;;5034005;28;20032;-72
2023/02/10 08:23:56;;;;;;;0.10;0.10;;;4.60;99.90;;;;;;5034458;28;20539;-71
2023/02/10 08:26:22;;;;;;;1.88;0.88;;;4.70;99.90;;;;;;5034257;28;20104;-73
2023/02/10 08:28:48;;;;;;;0.93;0.77;;;4.80;99.90;;;;;;5034405;28;20052;-73
2023/02/10 08:31:13;;;;;;;5.03;1.25;;;4.80;99.90;;;;;;5017153;28;20067;-71
2023/02/10 08:33:41;;;;;;;0.10;0.10;;;4.80;99.90;;;;;;5033695;28;20029;-71
2023/02/10 08:36:12;;;;;;;1.10;1.10;;;4.80;99.90;;;;;;5033770;28;20013;-71
2023/02/10 08:38:38;;;;;;;0.20;0.20;;;4.90;99.90;;;;;;5033790;28;20034;-71
2023/02/10 08:41:04;;;;;;;0.10;0.10;;;4.90;99.90;;;;;;5034008;28;20075;-71
2023/02/10 08:43:30;;;;;;;0.10;0.10;;;4.90;99.90;;;;;;5033580;28;20053;-71
2023/02/10 08:45:58;;;;;;;1.20;1.20;;;5.00;99.90;;;;;;5033879;28;20061;-71
2023/02/10 08:48:23;;;;;;;0.20;0.20;;;5.00;99.90;;;;;;5033464;28;20112;-71
2023/02/10 08:50:49;;;;;;;3.40;0.20;;;5.00;99.90;;;;;;5033570;28;20108;-71
2023/02/10 08:53:15;;;;;;;29.40;0.57;;;5.00;99.90;;;;;;5033388;28;20061;-71
2023/02/10 08:55:40;;;;;;;0.22;0.22;;;5.10;99.90;;;;;;5034241;28;20060;-71
2023/02/10 08:58:06;;;;;;;0.10;0.10;;;5.10;99.90;;;;;;5033394;28;20026;-71
2023/02/10 09:00:32;;;;;;;0.10;0.10;;;5.10;99.90;;;;;;5058068;22;20041;-69
2023/02/10 09:02:58;;;;;;;0.10;0.10;;;5.10;99.90;;;;;;5033220;28;20029;-69
2023/02/10 09:05:23;;;;;;;0.52;0.35;;;5.20;99.90;;;;;;5033442;28;20044;-69
2023/02/10 09:07:50;;;;;;;0.10;0.10;;;5.30;99.90;;;;;;5032167;28;20029;-68
2023/02/10 09:10:16;;;;;;;0.10;0.10;;;5.30;99.90;;;;;;5033306;28;20036;-69
2023/02/10 09:12:42;;;;;;;1.48;0.52;;;5.40;99.90;;;;;;5033235;28;20029;-69
2023/02/10 09:15:09;;;;;;;4.63;1.33;;;5.40;99.90;;;;;;5033224;28;20024;-69
2023/02/10 09:17:34;;;;;;;0.20;0.20;;;5.50;99.90;;;;;;5033428;28;20026;-69
2023/02/10 09:20:00;;;;;;;0.82;0.80;;;5.50;99.90;;;;;;5033084;28;20479;-69
2023/02/10 09:22:26;;;;;;;0.08;0.08;;;5.50;99.90;;;;;;5032815;28;20029;-71
2023/02/10 09:24:52;;;;;;;0.30;0.30;;;5.60;99.90;;;;;;5032843;28;20025;-70
2023/02/10 09:27:18;;;;;;;0.20;0.20;;;5.60;99.90;;;;;;5016436;28;20167;-70
2023/02/10 09:29:44;;;;;;;0.30;0.30;;;5.60;99.90;;;;;;5033048;28;20033;-70
2023/02/10 09:32:10;;;;;;;9.25;0.35;;;5.70;99.90;;;;;;5031264;28;20037;-70
2023/02/10 09:34:36;;;;;;;16.08;1.95;;;5.70;99.90;;;;;;5033011;28;20071;-69
2023/02/10 09:37:02;;;;;;;0.10;0.10;;;5.70;99.90;;;;;;5029185;28;20022;-70
2023/02/10 09:39:29;;;;;;;0.10;0.10;;;5.80;99.90;;;;;;5033059;28;20036;-70
2023/02/10 09:41:57;;;;;;;0.43;0.43;;;5.90;99.90;;;;;;5032960;28;20032;-69
2023/02/10 09:44:28;;;;;;;0.43;0.43;;;6.00;99.90;;;;;;5029455;28;20479;-70
2023/02/10 09:47:27;;;;;;;0.77;0.77;;;6.00;99.90;;;;;;5013278;28;20034;-69
2023/02/10 09:50:07;;;;;;;0.10;0.10;;;6.00;99.90;;;;;;5018425;28;20509;-70
2023/02/10 09:52:49;;;;;;;0.10;0.10;;;6.20;99.90;;;;;;5032983;28;20022;-69
2023/02/10 09:55:22;;;;;;;0.20;0.20;;;6.20;99.90;;;;;;5033092;28;20025;-70
2023/02/10 09:57:52;;;;;;;0.10;0.10;;;6.20;99.90;;;;;;5032860;28;20024;-69
2023/02/10 10:00:29;;;;;;;0.10;0.10;;;6.30;99.90;;;;;;5018728;28;20026;-70
2023/02/10 10:02:57;;;;;;;0.70;0.68;;;6.30;99.90;;;;;;5013179;28;20014;-69
2023/02/10 10:05:49;;;;;;;0.57;0.38;;;6.40;99.90;;;;;;5012986;28;20037;-69
2023/02/10 10:08:43;;;;;;;3.25;3.03;;;6.30;99.90;;;;;;5015317;28;20026;-70
2023/02/10 10:11:24;;;;;;;0.88;0.43;;;6.40;99.90;;;;;;5033379;28;20028;-70
2023/02/10 10:13:49;;;;;;;0.25;0.25;;;6.40;99.90;;;;;;5032569;28;20029;-70
2023/02/10 10:16:52;;;;;;;0.20;0.20;;;6.50;99.90;;;;;;5032456;28;20026;-70
2023/02/10 10:19:33;;;;;;;20.27;2.00;;;6.50;99.90;;;;;;5032570;28;20530;-70
2023/02/10 10:22:17;;;;;;;1.10;1.10;;;6.50;99.90;;;;;;5032867;28;20096;-70
2023/02/10 10:25:19;;;;;;;6.03;0.82;;;6.60;99.90;;;;;;5028642;28;20025;-70
2023/02/10 10:28:20;;;;;;;3.33;1.42;;;6.60;99.90;;;;;;5028041;28;20115;-70
2023/02/10 10:30:48;;;;;;;0.10;0.10;;;6.70;99.90;;;;;;5007764;28;20041;-70
2023/02/10 10:33:25;;;;;;;0.20;0.20;;;6.80;99.90;;;;;;5035120;28;20025;-70
2023/02/10 10:35:51;;;;;;;0.20;0.20;;;6.90;99.90;;;;;;5036157;28;20523;-70
2023/02/10 10:38:28;;;;;;;0.20;0.20;;;7.00;99.90;;;;;;5036100;28;20021;-70
2023/02/10 10:40:59;;;;;;;0.20;0.20;;;7.00;99.90;;;;;;5036043;28;20152;-70
2023/02/10 10:43:29;;;;;;;0.15;0.15;;;7.00;99.90;;;;;;5035896;28;20024;-70
2023/02/10 10:46:10;;;;;;;3.55;1.70;;;7.10;99.90;;;;;;5035973;28;20569;-70
2023/02/10 10:48:39;;;;;;;0.20;0.20;;;7.00;99.90;;;;;;5036377;28;20026;-70
2023/02/10 10:51:05;;;;;;;0.55;0.50;;;7.10;99.90;;;;;;5035587;28;20029;-70
2023/02/10 10:53:40;;;;;;;9.52;8.35;;;7.00;99.90;;;;;;5035784;28;20036;-70
2023/02/10 10:56:29;;;;;;;0.95;0.93;;;6.90;99.90;;;;;;5035918;28;20029;-70
2023/02/10 10:58:55;;;;;;;0.10;0.10;;;6.90;99.90;;;;;;5025651;28;20058;-70
2023/02/10 11:01:34;;;;;;;0.20;0.20;;;7.00;99.90;;;;;;5035552;28;20073;-70
2023/02/10 11:04:05;;;;;;;3.40;1.33;;;7.10;99.90;;;;;;5035793;28;20017;-70
2023/02/10 11:06:34;;;;;;;1.35;0.88;;;7.10;99.90;;;;;;5035494;28;20033;-70
2023/02/10 11:09:02;;;;;;;1.13;0.52;;;7.00;99.90;;;;;;5035748;28;20033;-69
2023/02/10 11:11:37;;;;;;;3.80;1.13;;;7.10;99.90;;;;;;5035240;28;20083;-69
2023/02/10 11:14:16;;;;;;;5.05;0.90;;;7.10;99.90;;;;;;5035697;28;20025;-69
2023/02/10 11:16:47;;;;;;;1.10;0.50;;;7.20;99.90;;;;;;5032250;28;20191;-69
2023/02/10 11:19:25;;;;;;;0.88;0.57;;;7.30;99.90;;;;;;5026059;28;20474;-69
2023/02/10 11:21:54;;;;;;;0.63;0.63;;;7.40;99.90;;;;;;5024429;28;20036;-69
2023/02/10 11:24:28;;;;;;;0.45;0.45;;;7.20;99.90;;;;;;5029521;28;20032;-69
2023/02/10 11:27:06;;;;;;;0.60;0.45;;;7.20;99.90;;;;;;5027638;28;20056;-69
2023/02/10 11:29:39;;;;;;;1.90;0.52;;;7.20;99.90;;;;;;5030674;28;20025;-69
2023/02/10 11:32:05;;;;;;;0.20;0.20;;;7.20;99.90;;;;;;5030129;28;20544;-69
2023/02/10 11:34:40;;;;;;;7.57;0.85;;;7.20;99.90;;;;;;5026647;28;20133;-69
2023/02/10 11:37:36;;;;;;;0.30;0.30;;;7.20;99.90;;;;;;5029480;28;20091;-70
2023/02/10 11:40:15;;;;;;;3.88;3.40;;;7.20;99.90;;;;;;5022455;28;20502;-70
2023/02/10 11:42:41;;;;;;;1.08;0.98;;;7.20;99.90;;;;;;5026556;28;20049;-70
2023/02/10 11:45:25;;;;;;;0.70;0.65;;;7.20;99.90;;;;;;5027467;28;20483;-71
2023/02/10 11:48:02;;;;;;;0.40;0.40;;;7.10;99.90;;;;;;5027940;28;20491;-71
2023/02/10 11:50:32;;;;;;;6.95;3.25;;;7.10;99.90;;;;;;5023626;28;20092;-71
2023/02/10 11:52:58;;;;;;;3.33;0.52;;;7.00;99.90;;;;;;5028439;28;20376;-70
2023/02/10 11:55:37;;;;;;;0.20;0.20;;;7.00;99.90;;;;;;5026446;28;20018;-71
2023/02/10 12:01:24;;;;;;;0.25;0.25;;;7.00;99.90;;;;;;5028015;28;20091;-70
2023/02/10 12:04:00;;;;;;;1.23;1.13;;;6.90;99.90;;;;;;5024312;28;20029;-70
2023/02/10 12:06:47;;;;;;;0.20;0.20;;;6.80;99.90;;;;;;5024347;28;20034;-70
2023/02/10 12:09:27;;;;;;;0.57;0.57;;;6.90;99.90;;;;;;5017256;28;20087;-70
2023/02/10 12:12:11;;;;;;;7.18;1.02;;;6.90;99.90;;;;;;5025195;28;20063;-70
2023/02/10 12:14:58;;;;;;;0.30;0.30;;;7.00;99.90;;;;;;5026466;28;20032;-70
2023/02/10 12:17:33;;;;;;;1.50;1.25;;;6.90;99.90;;;;;;5022511;28;20087;-69
2023/02/10 12:20:01;;;;;;;4.22;1.38;;;7.00;99.90;;;;;;5022845;28;20032;-69
2023/02/10 12:22:44;;;;;;;3.13;0.82;;;7.10;99.90;;;;;;5025214;28;20026;-69
2023/02/10 12:25:18;;;;;;;5.78;2.05;;;7.00;99.90;;;;;;5023542;28;20022;-69
2023/02/10 12:28:02;;;;;;;9.65;1.23;;;7.00;99.90;;;;;;5028731;28;20037;-69
2023/02/10 12:30:49;;;;;;;0.30;0.30;;;7.00;99.90;;;;;;5022574;28;20029;-70
2023/02/10 12:33:36;;;;;;;3.30;1.95;;;7.00;99.90;;;;;;5024868;28;20033;-71
2023/02/10 12:36:08;;;;;;;4.95;1.98;;;7.10;99.90;;;;;;5027686;28;20021;-71
2023/02/10 12:38:45;;;;;;;4.97;3.20;;;7.10;99.90;;;;;;5028590;28;20028;-70
2023/02/10 12:41:34;;;;;;;8.50;2.83;;;7.10;99.90;;;;;;5030920;28;20059;-71
2023/02/10 12:44:08;;;;;;;0.40;0.40;;;7.20;99.90;;;;;;5019905;28;20509;-70
2023/02/10 12:46:37;;;;;;;0.13;0.13;;;7.30;99.90;;;;;;5030015;28;20033;-71
2023/02/10 12:49:18;;;;;;;1.60;0.80;;;7.30;99.90;;;;;;5028324;28;20029;-70
2023/02/10 12:52:12;;;;;;;7.53;0.88;;;7.30;99.90;;;;;;5027059;28;20104;-69
2023/02/10 12:55:13;;;;;;;5.10;0.40;;;7.40;99.90;;;;;;5026792;28;20030;-70
2023/02/10 12:57:47;;;;;;;1.40;1.30;;;7.40;99.90;;;;;;5014272;28;20049;-69
2023/02/10 13:00:34;;;;;;;0.38;0.38;;;7.30;99.90;;;;;;5033353;28;20034;-70
2023/02/10 13:03:25;;;;;;;1.52;0.60;;;7.40;99.90;;;;;;5015613;28;20022;-70
2023/02/10 13:06:13;;;;;;;0.10;0.10;;;7.40;99.90;;;;;;5028430;28;20037;-71
2023/02/10 13:08:47;;;;;;;0.20;0.20;;;7.40;99.90;;;;;;5022782;28;20065;-71
2023/02/10 13:11:21;;;;;;;4.60;2.22;;;7.30;99.90;;;;;;5033084;28;20093;-70
2023/02/10 13:13:49;;;;;;;9.13;0.55;;;7.20;99.90;;;;;;5033538;28;20125;-71
2023/02/10 13:16:23;;;;;;;0.88;0.88;;;7.30;99.90;;;;;;5033286;28;20026;-71